Time;durP1;ratioP1;P1;durP2;ratioP2;P2;SDS_P1;SDS_P2;PMS_P1;PMS_P2;Temp;Humidity;BMP_temperature;BMP_pressure;BME280_temperature;BME280_humidity;BME280_pressure;Samples;Min_cycle;Max_cycle;Signal;HPM_P1;HPM_P2
2022/11/12 00:02:53;;;;;;;2.90;1.13;;;;;;;2.40;100.00;99301.47;6270217;28;20227;-42
2022/11/12 00:06:14;;;;;;;3.43;1.33;;;;;;;2.40;100.00;99315.34;6265425;28;20231;-43
2022/11/12 00:09:34;;;;;;;3.03;1.43;;;;;;;2.39;100.00;99305.84;6267070;28;20286;-42
2022/11/12 00:12:55;;;;;;;2.30;2.10;;;;;;;2.36;100.00;99311.13;6267469;28;20232;-42
2022/11/12 00:16:16;;;;;;;4.97;3.47;;;;;;;2.36;100.00;99303.31;6267972;28;20753;-42
2022/11/12 00:19:36;;;;;;;15.07;7.47;;;;;;;2.36;100.00;99310.25;6266318;28;20236;-42
2022/11/12 00:22:57;;;;;;;8.70;4.73;;;;;;;2.34;100.00;99322.44;6269155;28;20233;-42
2022/11/12 00:26:18;;;;;;;6.07;3.77;;;;;;;2.30;100.00;99321.66;6266415;28;20236;-42
2022/11/12 00:29:38;;;;;;;4.13;2.47;;;;;;;2.28;100.00;99313.03;6265922;28;20259;-42
2022/11/12 00:33:03;;;;;;;1.80;1.13;;;;;;;2.29;100.00;99316.50;6266542;28;20234;-42
2022/11/12 00:36:23;;;;;;;2.10;0.90;;;;;;;2.28;100.00;99307.81;6264436;28;20692;-42
2022/11/12 00:39:44;;;;;;;0.70;0.70;;;;;;;2.26;100.00;99308.72;6264335;28;20226;-42
2022/11/12 00:43:04;;;;;;;1.80;0.70;;;;;;;2.25;100.00;99301.81;6250713;28;20235;-42
2022/11/12 00:46:25;;;;;;;1.60;0.70;;;;;;;2.23;100.00;99299.22;6264468;28;20242;-42
2022/11/12 00:49:46;;;;;;;0.70;0.70;;;;;;;2.22;100.00;99292.31;6266853;28;20232;-43
2022/11/12 00:53:08;;;;;;;0.57;0.50;;;;;;;2.19;100.00;99301.06;6266119;28;20232;-42
2022/11/12 00:56:29;;;;;;;0.73;0.33;;;;;;;2.14;100.00;99294.22;6265161;28;20230;-43
2022/11/12 00:59:54;;;;;;;2.00;0.50;;;;;;;2.11;100.00;99299.47;6264738;28;20541;-42
2022/11/12 01:03:15;;;;;;;0.40;0.40;;;;;;;2.09;100.00;99296.94;6266176;28;20231;-42
2022/11/12 01:06:38;;;;;;;0.63;0.50;;;;;;;2.05;100.00;99295.25;6266616;28;20293;-42
2022/11/12 01:09:59;;;;;;;0.80;0.47;;;;;;;2.02;100.00;99291.84;6264008;28;20701;-42
2022/11/12 01:13:20;;;;;;;0.60;0.40;;;;;;;1.94;100.00;99285.94;6266026;28;20325;-41
2022/11/12 01:16:41;;;;;;;0.83;0.50;;;;;;;1.89;100.00;99283.44;6265361;28;20444;-42
2022/11/12 01:20:02;;;;;;;0.37;0.37;;;;;;;1.83;100.00;99280.94;6264929;28;20236;-42
2022/11/12 01:23:23;;;;;;;0.70;0.50;;;;;;;1.80;100.00;99273.19;6268675;28;20696;-43
2022/11/12 01:26:43;;;;;;;0.60;0.50;;;;;;;1.76;100.00;99269.81;6263489;28;20714;-43
2022/11/12 01:30:05;;;;;;;2.10;0.60;;;;;;;1.73;100.00;99261.19;6263881;28;20226;-42
2022/11/12 01:33:25;;;;;;;0.50;0.30;;;;;;;1.70;100.00;99256.03;6264433;28;21013;-42
2022/11/12 01:36:46;;;;;;;1.50;0.27;;;;;;;1.68;100.00;99250.91;6263793;28;20235;-42
2022/11/12 01:40:07;;;;;;;1.03;0.70;;;;;;;1.69;100.00;99249.16;6266371;28;20234;-44
2022/11/12 01:43:28;;;;;;;1.90;0.60;;;;;;;1.69;100.00;99255.22;6264827;28;20232;-42
2022/11/12 01:47:05;;;;;;;1.03;0.80;;;;;;;1.69;100.00;99247.41;6265685;28;20238;-42
2022/11/12 01:50:32;;;;;;;0.70;0.70;;;;;;;1.69;100.00;99250.00;6263408;28;20229;-43
2022/11/12 01:53:58;;;;;;;0.60;0.60;;;;;;;1.67;100.00;99253.53;6274018;28;20322;-42
2022/11/12 01:57:27;;;;;;;1.47;0.87;;;;;;;1.66;100.00;99251.81;6262376;28;20719;-42
2022/11/12 02:00:55;;;;;;;4.83;1.93;;;;;;;1.63;100.00;99257.06;6262197;28;20231;-42
2022/11/12 02:04:16;;;;;;;11.03;6.30;;;;;;;1.61;100.00;99254.47;6263806;28;20232;-42
2022/11/12 02:07:41;;;;;;;5.30;3.00;;;;;;;1.59;100.00;99261.47;6265747;28;20239;-42
2022/11/12 02:11:16;;;;;;;5.27;2.60;;;;;;;1.53;100.00;99258.97;6262912;28;20241;-42
2022/11/12 02:14:37;;;;;;;6.03;3.03;;;;;;;1.48;100.00;99250.41;6265935;28;20709;-42
2022/11/12 02:17:58;;;;;;;5.70;2.60;;;;;;;1.47;100.00;99248.69;6266351;28;20715;-42
2022/11/12 02:21:20;;;;;;;4.33;3.07;;;;;;;1.42;100.00;99259.16;6267625;28;20559;-44
2022/11/12 02:24:41;;;;;;;3.43;2.00;;;;;;;1.46;100.00;99255.66;6267836;28;20234;-42
2022/11/12 02:28:05;;;;;;;3.57;1.40;;;;;;;1.50;100.00;99248.63;6273664;28;20245;-42
2022/11/12 02:31:25;;;;;;;2.40;1.00;;;;;;;1.50;100.00;99261.63;6268257;28;20236;-42
2022/11/12 02:34:46;;;;;;;1.13;1.00;;;;;;;1.53;100.00;99247.72;6266567;28;20237;-42
2022/11/12 02:38:08;;;;;;;2.10;0.57;;;;;;;1.56;100.00;99258.06;6267444;28;20228;-43
2022/11/12 02:41:28;;;;;;;1.17;0.77;;;;;;;1.54;100.00;99254.63;6269839;28;20237;-43
2022/11/12 02:44:49;;;;;;;1.43;0.90;;;;;;;1.52;100.00;99246.00;6270050;28;20236;-43
2022/11/12 02:48:10;;;;;;;1.83;1.10;;;;;;;1.52;100.00;99243.38;6267098;28;20282;-42
2022/11/12 02:51:43;;;;;;;1.73;1.20;;;;;;;1.54;100.00;99246.81;6267506;28;20232;-42
2022/11/12 02:55:06;;;;;;;2.63;1.40;;;;;;;1.54;100.00;99245.09;6267155;28;20237;-43
2022/11/12 02:58:28;;;;;;;2.77;1.10;;;;;;;1.57;100.00;99250.25;6269806;28;20238;-42
2022/11/12 03:01:49;;;;;;;1.80;0.80;;;;;;;1.62;100.00;99253.59;6267838;28;20595;-42
2022/11/12 03:05:10;;;;;;;0.83;0.60;;;;;;;1.69;100.00;99250.00;6268698;28;20429;-42
2022/11/12 03:08:31;;;;;;;2.70;0.63;;;;;;;1.74;100.00;99247.31;6268084;28;20223;-42
2022/11/12 03:11:52;;;;;;;1.80;0.90;;;;;;;1.83;100.00;99241.91;6266913;28;20729;-42
2022/11/12 03:15:12;;;;;;;0.40;0.40;;;;;;;1.94;100.00;99250.34;6266384;28;20227;-43
2022/11/12 03:18:33;;;;;;;1.07;0.43;;;;;;;2.06;100.00;99249.25;6258219;28;20754;-42
2022/11/12 03:21:53;;;;;;;1.57;0.40;;;;;;;2.12;100.00;99252.56;6268180;28;20331;-42
2022/11/12 03:25:14;;;;;;;3.93;0.40;;;;;;;2.17;100.00;99257.69;6266873;28;20225;-42
2022/11/12 03:28:35;;;;;;;1.03;0.50;;;;;;;2.21;100.00;99254.13;6269242;28;20268;-42
2022/11/12 03:31:55;;;;;;;0.93;0.50;;;;;;;2.25;100.00;99254.91;6266904;28;20242;-42
2022/11/12 03:35:16;;;;;;;1.60;0.63;;;;;;;2.28;100.00;99253.13;6268351;28;20229;-42
2022/11/12 03:38:37;;;;;;;0.83;0.60;;;;;;;2.30;100.00;99253.91;6269681;28;20229;-43
2022/11/12 03:41:57;;;;;;;0.67;0.67;;;;;;;2.34;100.00;99252.97;6267745;28;20231;-42
2022/11/12 03:45:20;;;;;;;1.07;0.70;;;;;;;2.37;100.00;99252.06;6265407;28;20772;-43
2022/11/12 03:48:40;;;;;;;1.30;0.60;;;;;;;2.33;100.00;99239.97;6266690;28;20241;-42
2022/11/12 03:52:01;;;;;;;0.60;0.60;;;;;;;2.27;100.00;99247.94;6267525;28;20273;-43
2022/11/12 03:55:24;;;;;;;0.60;0.60;;;;;;;2.22;100.00;99248.03;6265961;28;20230;-42
2022/11/12 03:58:45;;;;;;;0.60;0.60;;;;;;;2.18;100.00;99251.59;6266220;28;20224;-43
2022/11/12 04:02:05;;;;;;;2.37;0.80;;;;;;;2.16;100.00;99240.34;6267826;28;20224;-42
2022/11/12 04:09:05;;;;;;;2.63;0.87;;;;;;;2.03;100.00;99244.97;6267876;28;20589;-43
2022/11/12 04:23:28;;;;;;;0.43;0.40;;;;;;;1.77;100.00;99240.31;6268705;28;20234;-42
2022/11/12 04:26:48;;;;;;;0.90;0.60;;;;;;;1.73;100.00;99249.03;6268752;28;20231;-42
2022/11/12 04:30:15;;;;;;;0.50;0.50;;;;;;;1.69;100.00;99238.75;6265381;28;20642;-42
2022/11/12 04:33:36;;;;;;;1.20;1.10;;;;;;;1.67;100.00;99240.50;6266711;28;20597;-42
2022/11/12 04:36:56;;;;;;;1.07;0.97;;;;;;;1.63;100.00;99233.63;6264366;28;21033;-43
2022/11/12 04:47:42;;;;;;;1.50;1.03;;;;;;;1.50;100.00;99230.41;6266225;28;20230;-44
2022/11/12 04:52:03;;;;;;;2.83;1.20;;;;;;;1.43;100.00;99234.88;6263788;28;20242;-43
2022/11/12 04:54:48;;;;;;;3.40;0.80;;;;;;;1.46;100.00;99227.03;6266369;28;20233;-42
2022/11/12 05:01:38;;;;;;;0.70;0.70;;;;;;;1.45;100.00;99233.13;3885305;23;20234;-66
2022/11/12 05:04:59;;;;;;;0.80;0.60;;;;;;;1.38;100.00;99233.25;6250829;28;20302;-67
2022/11/12 05:08:20;;;;;;;1.10;0.77;;;;;;;1.35;100.00;99225.50;6251606;28;20230;-66
2022/11/12 05:11:40;;;;;;;0.83;0.70;;;;;;;1.32;100.00;99222.97;6249532;28;20235;-66
2022/11/12 05:15:02;;;;;;;2.13;0.80;;;;;;;1.31;100.00;99239.44;6251218;28;20320;-66
2022/11/12 05:18:23;;;;;;;0.70;0.70;;;;;;;1.32;100.00;99243.75;6250937;28;20699;-66
2022/11/12 05:25:24;;;;;;;3.40;1.13;;;;;;;1.27;100.00;99246.47;6249176;28;20720;-66
2022/11/12 05:28:44;;;;;;;2.10;1.00;;;;;;;1.28;100.00;99247.31;6250968;28;20231;-66
2022/11/12 05:32:07;;;;;;;0.97;0.83;;;;;;;1.26;100.00;99262.09;6253105;28;20597;-66
2022/11/12 05:35:28;;;;;;;0.83;0.80;;;;;;;1.26;100.00;99264.69;6252391;28;20278;-66
2022/11/12 05:38:48;;;;;;;3.33;1.57;;;;;;;1.24;100.00;99261.25;6250376;28;20232;-67
2022/11/12 05:42:09;;;;;;;1.80;1.40;;;;;;;1.23;100.00;99264.72;6251485;28;20238;-66
2022/11/12 05:45:33;;;;;;;2.70;1.60;;;;;;;1.24;100.00;99261.25;6252324;28;20220;-66
2022/11/12 05:48:54;;;;;;;3.63;1.67;;;;;;;1.25;100.00;99260.38;6252590;28;20237;-66
2022/11/12 05:52:14;;;;;;;1.83;1.30;;;;;;;1.26;100.00;99272.50;6250287;28;20649;-66
2022/11/12 05:55:35;;;;;;;1.90;1.50;;;;;;;1.32;100.00;99272.38;6250783;28;20228;-65
2022/11/12 05:58:56;;;;;;;1.97;1.30;;;;;;;1.35;100.00;99270.59;6255312;28;20238;-66
2022/11/12 06:02:17;;;;;;;2.60;1.20;;;;;;;1.32;100.00;99272.38;6252747;28;20689;-66
2022/11/12 06:05:38;;;;;;;1.87;0.87;;;;;;;1.33;100.00;99271.50;6257081;28;20319;-66
2022/11/12 06:08:58;;;;;;;1.23;0.87;;;;;;;1.34;100.00;99279.25;6254524;28;20581;-66
2022/11/12 06:12:19;;;;;;;1.90;0.70;;;;;;;1.39;100.00;99284.41;6254909;28;20306;-66
2022/11/12 06:15:40;;;;;;;2.17;1.10;;;;;;;1.43;100.00;99286.03;6256599;28;20606;-66
2022/11/12 06:19:00;;;;;;;0.97;0.87;;;;;;;1.47;100.00;99288.56;6257847;28;20268;-66
2022/11/12 06:22:21;;;;;;;1.23;0.80;;;;;;;1.53;100.00;99290.19;6254190;28;20620;-66
2022/11/12 06:25:41;;;;;;;0.73;0.73;;;;;;;1.58;100.00;99288.38;6251978;28;20237;-66
2022/11/12 06:29:02;;;;;;;1.43;0.80;;;;;;;1.60;100.00;99289.19;6252862;28;20237;-66
2022/11/12 06:32:23;;;;;;;1.07;0.97;;;;;;;1.65;100.00;99291.72;6254056;28;20735;-67
2022/11/12 06:35:44;;;;;;;1.13;0.90;;;;;;;1.73;100.00;99293.28;6255218;28;20231;-67
2022/11/12 06:39:05;;;;;;;2.93;0.80;;;;;;;1.82;100.00;99303.50;6252250;28;20312;-67
2022/11/12 06:42:25;;;;;;;3.43;0.80;;;;;;;1.90;100.00;99302.53;6238460;28;20234;-67
2022/11/12 06:45:46;;;;;;;1.20;0.93;;;;;;;2.00;100.00;99304.91;6255482;28;20812;-67
2022/11/12 06:49:07;;;;;;;1.33;0.90;;;;;;;2.08;100.00;99305.63;6252442;28;20237;-66
2022/11/12 06:52:28;;;;;;;1.27;1.00;;;;;;;2.17;100.00;99305.44;6253676;28;20230;-66
2022/11/12 06:55:49;;;;;;;1.63;1.00;;;;;;;2.28;100.00;99299.16;6254500;28;20223;-67
2022/11/12 06:59:09;;;;;;;1.20;1.10;;;;;;;2.36;100.00;99308.50;6235524;28;20260;-67
2022/11/12 07:02:30;;;;;;;1.30;1.10;;;;;;;2.46;100.00;99301.34;6250493;28;20221;-67
2022/11/12 07:05:50;;;;;;;2.50;1.00;;;;;;;2.59;100.00;99306.28;6253600;28;20233;-66
2022/11/12 07:09:11;;;;;;;1.13;1.00;;;;;;;2.78;100.00;99309.31;6254756;28;20233;-66
2022/11/12 07:12:32;;;;;;;2.37;0.90;;;;;;;2.91;100.00;99308.13;6251315;28;20227;-66
2022/11/12 07:15:56;;;;;;;1.50;0.90;;;;;;;3.05;100.00;99306.94;6253524;28;20234;-64
2022/11/12 07:19:17;;;;;;;3.60;0.97;;;;;;;3.18;100.00;99308.38;6250256;28;20239;-64
2022/11/12 07:22:37;;;;;;;1.43;1.00;;;;;;;3.30;100.00;99308.91;6252550;28;20237;-64
2022/11/12 07:26:00;;;;;;;1.20;1.10;;;;;;;3.44;100.00;99305.97;6253506;28;20606;-66
2022/11/12 07:29:21;;;;;;;1.50;1.20;;;;;;;3.59;100.00;99299.50;6253828;28;20235;-66
2022/11/12 07:33:01;;;;;;;1.07;0.93;;;;;;;3.78;100.00;99289.41;6250927;28;20274;-64
2022/11/12 07:36:22;;;;;;;1.60;0.97;;;;;;;3.96;100.00;99291.50;6236689;28;20231;-64
2022/11/12 07:39:43;;;;;;;1.07;0.80;;;;;;;4.13;100.00;99277.97;6254172;28;20222;-64
2022/11/12 07:43:03;;;;;;;0.97;0.80;;;;;;;4.33;100.00;99281.72;6254081;28;20235;-64
2022/11/12 07:46:26;;;;;;;1.43;1.10;;;;;;;4.63;100.00;99281.69;6251972;28;20703;-64
2022/11/12 07:49:47;;;;;;;0.53;0.53;;;;;;;4.84;100.00;99278.41;6253263;28;20241;-64
2022/11/12 07:53:08;;;;;;;1.67;0.77;;;;;;;5.10;100.00;99274.94;6250210;28;20239;-64
2022/11/12 07:56:28;;;;;;;2.53;0.90;;;;;;;5.24;100.00;99274.50;6252937;28;20235;-64
2022/11/12 07:59:49;;;;;;;0.97;0.80;;;;;;;5.25;100.00;99284.94;6253469;28;20325;-64
2022/11/12 08:03:10;;;;;;;3.53;1.00;;;;;;;5.40;100.00;99291.41;6225253;28;20227;-64
2022/11/12 08:06:31;;;;;;;1.23;1.07;;;;;;;5.59;99.88;99304.75;6250945;28;20226;-64
2022/11/12 08:09:53;;;;;;;1.23;1.00;;;;;;;5.70;99.16;99306.06;6252586;28;20233;-65
2022/11/12 08:13:13;;;;;;;0.97;0.80;;;;;;;5.88;98.16;99308.09;6237922;28;20733;-65
2022/11/12 08:16:34;;;;;;;1.43;0.90;;;;;;;6.06;98.78;99301.34;6235624;28;20237;-66
2022/11/12 08:19:55;;;;;;;0.90;0.90;;;;;;;6.30;98.40;99295.19;6250482;28;20625;-64
2022/11/12 08:23:16;;;;;;;1.33;0.80;;;;;;;6.51;97.76;99290.91;6252074;28;20723;-67
2022/11/12 08:26:37;;;;;;;2.00;1.03;;;;;;;6.81;97.20;99294.09;6249654;28;20242;-65
2022/11/12 08:29:58;;;;;;;2.53;1.00;;;;;;;7.20;93.00;99290.78;6251525;28;20694;-66
2022/11/12 08:33:18;;;;;;;2.20;0.90;;;;;;;7.52;91.95;99292.09;6251999;28;20242;-66
2022/11/12 08:36:39;;;;;;;1.23;0.90;;;;;;;8.00;89.00;99302.25;6249099;28;20230;-66
2022/11/12 08:40:00;;;;;;;1.63;1.00;;;;;;;8.36;85.27;99305.09;6247040;28;20239;-64
2022/11/12 08:43:21;;;;;;;1.60;0.90;;;;;;;8.65;83.09;99295.84;6236994;28;20235;-64
2022/11/12 08:46:42;;;;;;;1.63;1.03;;;;;;;8.92;79.00;99302.44;6248848;28;20233;-65
2022/11/12 08:50:06;;;;;;;1.20;0.90;;;;;;;9.30;75.15;99297.09;6250398;28;20322;-66
2022/11/12 08:53:27;;;;;;;1.73;0.80;;;;;;;9.67;71.76;99304.03;6252577;28;20314;-64
2022/11/12 08:56:48;;;;;;;2.00;1.10;;;;;;;9.86;72.54;99310.06;6248892;28;20235;-64
2022/11/12 09:00:11;;;;;;;1.10;0.80;;;;;;;10.00;72.27;99313.69;6249729;28;20229;-64
2022/11/12 09:03:32;;;;;;;3.43;1.03;;;;;;;10.19;69.80;99329.44;6250927;28;20314;-65
2022/11/12 09:06:53;;;;;;;1.30;0.90;;;;;;;10.51;67.74;99318.97;6249361;28;20336;-64
2022/11/12 09:10:14;;;;;;;0.90;0.90;;;;;;;10.76;67.95;99329.91;6250095;28;20235;-64
2022/11/12 09:13:35;;;;;;;2.50;1.10;;;;;;;10.98;68.60;99333.06;6252215;28;20601;-64
2022/11/12 09:16:55;;;;;;;1.63;1.00;;;;;;;11.15;67.04;99334.78;6235087;28;20240;-64
2022/11/12 09:20:15;;;;;;;1.83;1.00;;;;;;;11.36;67.17;99343.28;6250832;28;20238;-64
2022/11/12 09:23:36;;;;;;;4.37;1.30;;;;;;;11.50;65.83;99335.41;6253115;28;20614;-64
2022/11/12 09:26:57;;;;;;;1.70;1.30;;;;;;;11.75;63.93;99340.16;6246420;28;20230;-64
2022/11/12 09:30:18;;;;;;;0.90;0.80;;;;;;;11.97;61.75;99335.31;6249699;28;20294;-64
2022/11/12 09:33:38;;;;;;;1.33;0.90;;;;;;;12.32;60.36;99333.19;6252084;28;20314;-64
2022/11/12 09:36:59;;;;;;;3.37;1.07;;;;;;;12.55;57.85;99335.28;6249193;28;20219;-64
2022/11/12 09:40:20;;;;;;;1.90;1.10;;;;;;;12.74;57.25;99334.13;6249040;28;20231;-64
2022/11/12 09:43:51;;;;;;;1.47;0.80;;;;;;;12.92;57.94;99333.81;6251763;28;20707;-64
2022/11/12 09:47:26;;;;;;;1.00;0.90;;;;;;;13.09;56.46;99327.44;6250202;28;20235;-64
2022/11/12 09:50:57;;;;;;;1.50;1.10;;;;;;;13.21;55.75;99326.69;6248222;28;20486;-64
2022/11/12 09:54:28;;;;;;;1.30;1.20;;;;;;;13.32;52.65;99336.59;6249038;28;20628;-64
2022/11/12 09:57:49;;;;;;;1.07;0.90;;;;;;;13.58;54.13;99337.53;6250032;28;20641;-64
2022/11/12 10:01:16;;;;;;;1.60;1.00;;;;;;;14.28;50.45;99332.75;6250278;28;20244;-64
2022/11/12 10:04:55;;;;;;;1.07;0.90;;;;;;;14.22;48.41;99339.34;6249624;28;20287;-64
2022/11/12 10:08:43;;;;;;;1.57;1.13;;;;;;;13.98;49.50;99344.53;6248754;28;20238;-64
2022/11/12 10:12:30;;;;;;;2.00;0.97;;;;;;;14.00;51.99;99339.13;6250715;28;20306;-64
2022/11/12 10:19:57;;;;;;;1.53;0.90;;;;;;;14.14;50.90;99336.38;6250944;28;20694;-64
2022/11/12 10:23:17;;;;;;;1.27;0.90;;;;;;;14.04;49.16;99322.88;6249269;28;20238;-64
2022/11/12 10:26:39;;;;;;;2.13;1.13;;;;;;;14.15;50.58;99324.81;6249270;28;20239;-64
2022/11/12 10:30:16;;;;;;;1.20;1.10;;;;;;;14.36;49.56;99323.34;6246957;28;20239;-66
2022/11/12 10:33:37;;;;;;;1.40;0.83;;;;;;;14.42;49.56;99311.44;6249848;28;20234;-63
2022/11/12 10:37:06;;;;;;;3.13;1.30;;;;;;;14.35;47.25;99299.53;6249409;28;20231;-64
2022/11/12 10:40:35;;;;;;;1.80;1.07;;;;;;;14.39;46.51;99293.91;6250082;28;20721;-64
2022/11/12 10:44:04;;;;;;;1.23;0.90;;;;;;;14.39;47.24;99285.09;6252980;28;20228;-64
2022/11/12 10:47:40;;;;;;;1.00;0.90;;;;;;;14.60;46.77;99299.53;6251625;28;20235;-64
2022/11/12 10:51:03;;;;;;;2.07;0.97;;;;;;;14.61;46.66;99301.22;6246465;28;20235;-64
2022/11/12 10:54:28;;;;;;;0.87;0.77;;;;;;;14.62;46.81;99297.63;6252152;28;20231;-64
2022/11/12 10:58:11;;;;;;;1.20;0.90;;;;;;;14.85;47.71;99298.63;6254303;28;20231;-64
2022/11/12 11:01:32;;;;;;;1.20;1.10;;;;;;;14.86;44.42;99280.88;6251289;28;20232;-63
2022/11/12 11:04:55;;;;;;;1.67;0.93;;;;;;;14.75;43.92;99276.34;6252562;28;20231;-63
2022/11/12 11:08:31;;;;;;;0.77;0.70;;;;;;;14.78;44.05;99276.94;6252917;28;20258;-64
2022/11/12 11:11:56;;;;;;;1.03;0.90;;;;;;;14.78;44.93;99266.31;6253765;28;20239;-64
2022/11/12 11:15:20;;;;;;;2.57;1.20;;;;;;;14.74;44.26;99267.50;6254943;28;20232;-63
2022/11/12 11:18:45;;;;;;;1.53;1.10;;;;;;;14.71;43.04;99270.38;6252106;28;20602;-64
2022/11/12 11:22:20;;;;;;;1.60;1.10;;;;;;;14.77;44.03;99267.25;6252717;28;20277;-63
2022/11/12 11:25:42;;;;;;;1.63;1.00;;;;;;;14.87;43.81;99262.16;6253178;28;20231;-63
2022/11/12 11:29:40;;;;;;;0.97;0.80;;;;;;;15.03;43.42;99264.53;6251318;28;20231;-63
2022/11/12 11:33:36;;;;;;;1.70;1.10;;;;;;;15.30;44.29;99246.53;6250054;28;20231;-63
2022/11/12 11:37:21;;;;;;;1.20;0.97;;;;;;;15.42;43.93;99228.81;6166317;28;20219;-63
2022/11/12 11:41:05;;;;;;;0.93;0.80;;;;;;;15.59;43.68;99236.41;6252967;28;20227;-63
2022/11/12 11:44:35;;;;;;;0.80;0.80;;;;;;;15.77;44.21;99234.16;6254397;28;20231;-63
2022/11/12 11:48:07;;;;;;;1.23;0.90;;;;;;;15.95;43.89;99231.91;6250558;28;20243;-63
2022/11/12 11:51:34;;;;;;;1.47;1.00;;;;;;;16.14;42.67;99227.69;6250828;28;20224;-63
2022/11/12 11:55:20;;;;;;;1.47;1.10;;;;;;;16.32;42.24;99227.19;6239930;28;20235;-63
2022/11/12 11:58:53;;;;;;;1.87;0.90;;;;;;;16.39;41.76;99223.06;6253721;28;20613;-63
2022/11/12 12:02:31;;;;;;;1.23;0.80;;;;;;;16.49;41.56;99222.19;6252309;28;20239;-63
2022/11/12 12:06:17;;;;;;;2.10;0.70;;;;;;;16.59;40.00;99217.84;6252971;28;20231;-62
2022/11/12 12:09:54;;;;;;;1.70;1.00;;;;;;;16.34;39.18;99218.09;6252183;28;20683;-63
2022/11/12 12:13:28;;;;;;;1.20;1.00;;;;;;;16.50;38.30;99215.06;6238236;28;20231;-62
2022/11/12 12:16:55;;;;;;;0.93;0.83;;;;;;;16.68;39.99;99218.09;6252395;28;20724;-63
2022/11/12 12:20:25;;;;;;;3.47;1.40;;;;;;;16.80;38.04;99225.94;6249652;28;20438;-64
2022/11/12 12:23:56;;;;;;;2.97;1.13;;;;;;;16.71;38.17;99216.03;6251779;28;20667;-64
2022/11/12 12:27:24;;;;;;;1.87;1.00;;;;;;;16.81;38.19;99214.31;6250531;28;20227;-63
2022/11/12 12:30:52;;;;;;;0.80;0.80;;;;;;;17.34;38.05;99211.72;6249416;28;20227;-64
2022/11/12 12:34:26;;;;;;;1.47;0.60;;;;;;;17.29;38.21;99211.25;6252386;28;20239;-64
2022/11/12 12:38:00;;;;;;;1.43;0.70;;;;;;;17.55;36.80;99201.91;6250224;28;20235;-64
2022/11/12 12:42:09;;;;;;;2.23;1.10;;;;;;;18.19;34.52;99204.41;6229095;28;20231;-64
2022/11/12 12:45:42;;;;;;;1.90;1.37;;;;;;;20.96;32.06;99189.25;6242278;28;20234;-63
2022/11/12 12:49:06;;;;;;;1.03;0.90;;;;;;;22.68;29.10;99187.63;6252857;28;20235;-63
2022/11/12 12:52:26;;;;;;;2.17;0.93;;;;;;;23.61;26.73;99178.41;6249898;28;20239;-64
2022/11/12 12:55:49;;;;;;;1.73;0.90;;;;;;;-144.22;100.00;60274.75;6251772;28;20227;-64
2022/11/12 12:59:21;;;;;;;1.17;0.80;;;;;;;-144.22;100.00;60274.75;6249782;28;20231;-64
2022/11/12 13:02:42;;;;;;;1.20;0.90;;;;;;;19.91;31.43;99180.69;6251555;28;20231;-64
2022/11/12 13:06:13;;;;;;;2.27;1.00;;;;;;;17.54;35.67;99186.03;6250457;28;20621;-63
2022/11/12 13:09:33;;;;;;;1.80;1.40;;;;;;;16.11;39.75;99192.44;6251239;28;20230;-64
2022/11/12 13:13:04;;;;;;;3.17;1.20;;;;;;;15.47;40.68;99184.91;6249100;28;20231;-64
2022/11/12 13:16:47;;;;;;;1.40;1.13;;;;;;;14.78;43.46;99191.88;6251391;28;20239;-64
2022/11/12 13:20:07;;;;;;;3.37;1.40;;;;;;;14.22;44.50;99187.16;6252966;28;20231;-64
2022/11/12 13:24:11;;;;;;;1.57;1.13;;;;;;;13.87;44.55;99194.94;6247743;28;20231;-64
2022/11/12 13:27:52;;;;;;;2.30;1.00;;;;;;;13.59;46.30;99198.63;6251885;28;20231;-67
2022/11/12 13:31:26;;;;;;;2.00;0.90;;;;;;;13.23;47.60;99197.53;6250105;28;20617;-68
2022/11/12 13:34:47;;;;;;;1.00;0.90;;;;;;;13.07;47.95;99188.88;6249561;28;20721;-68
2022/11/12 13:38:09;;;;;;;1.37;1.03;;;;;;;12.79;50.27;99196.91;6249928;28;20322;-67
2022/11/12 13:45:12;;;;;;;1.23;0.90;;;;;;;12.20;53.70;99199.78;6250856;28;20262;-67
2022/11/12 13:48:45;;;;;;;1.40;1.07;;;;;;;12.00;55.11;99200.16;6232830;28;20227;-67
2022/11/12 13:52:06;;;;;;;1.63;1.10;;;;;;;11.85;55.47;99194.97;6249872;28;20231;-67
2022/11/12 13:55:27;;;;;;;2.13;1.10;;;;;;;11.63;56.33;99190.97;6249538;28;20239;-67
2022/11/12 13:58:47;;;;;;;2.20;1.10;;;;;;;11.47;57.37;99187.56;6250221;28;20227;-67
2022/11/12 14:02:25;;;;;;;2.20;1.10;;;;;;;-144.22;100.00;60274.75;6231009;28;20236;-67
2022/11/12 14:05:48;;;;;;;2.83;1.30;;;;;;;11.19;100.00;60274.75;6225809;28;20228;-67
2022/11/12 14:09:11;;;;;;;2.87;1.30;;;;;;;-144.22;100.00;60274.75;6224157;28;20875;-67
2022/11/12 14:12:38;;;;;;;1.23;1.00;;;;;;;10.61;62.62;99181.09;6226085;28;20236;-67
2022/11/12 14:16:14;;;;;;;2.27;1.20;;;;;;;10.41;64.22;99184.00;6222706;28;20235;-67
2022/11/12 14:19:54;;;;;;;1.60;1.50;;;;;;;10.24;65.09;99192.84;6232269;28;20282;-67
2022/11/12 14:23:20;;;;;;;2.43;2.00;;;;;;;9.96;66.47;99188.19;6231067;28;20231;-67
2022/11/12 14:26:44;;;;;;;2.43;1.83;;;;;;;9.74;67.47;99182.38;6231565;28;20227;-67
2022/11/12 14:30:16;;;;;;;4.37;2.17;;;;;;;9.56;68.40;99173.66;6230436;28;20238;-67
2022/11/12 14:33:37;;;;;;;3.73;2.17;;;;;;;9.35;69.70;99181.81;6229697;28;20238;-67
2022/11/12 14:36:59;;;;;;;3.93;1.50;;;;;;;9.16;70.47;99181.88;6230927;28;20235;-67
2022/11/12 14:40:25;;;;;;;2.87;1.50;;;;;;;9.00;71.76;99173.03;6229669;28;20238;-67
2022/11/12 14:43:50;;;;;;;2.40;1.70;;;;;;;8.83;72.61;99187.03;6230264;28;20228;-67
2022/11/12 14:47:30;;;;;;;3.50;3.17;;;;;;;8.61;73.64;99179.34;6229318;28;20329;-66
2022/11/12 14:51:01;;;;;;;4.37;2.30;;;;;;;8.43;74.21;99183.72;6228555;28;20750;-67
2022/11/12 14:54:35;;;;;;;2.73;1.83;;;;;;;8.25;75.17;99188.97;6228781;28;20227;-67
2022/11/12 14:57:58;;;;;;;3.70;1.40;;;;;;;8.01;75.60;99183.91;6229955;28;20236;-66
2022/11/12 15:01:27;;;;;;;3.53;1.27;;;;;;;7.83;77.43;99183.88;6227805;28;20323;-67
2022/11/12 15:05:13;;;;;;;2.13;1.30;;;;;;;7.61;79.05;99187.47;6229253;28;20229;-67
2022/11/12 15:08:36;;;;;;;3.20;1.30;;;;;;;7.36;79.07;99187.69;6227515;28;20228;-67
2022/11/12 15:11:57;;;;;;;2.43;1.43;;;;;;;7.16;80.31;99182.44;6228599;28;20322;-67
2022/11/12 15:15:23;;;;;;;2.07;1.37;;;;;;;7.02;80.40;99190.03;6230421;28;20228;-67
2022/11/12 15:19:03;;;;;;;4.10;2.37;;;;;;;6.93;81.13;99196.53;6228005;28;20318;-67
2022/11/12 15:22:24;;;;;;;6.23;2.93;;;;;;;6.78;81.82;99193.69;6228104;28;20241;-67
2022/11/12 15:25:57;;;;;;;5.03;2.97;;;;;;;6.64;82.58;99189.84;6230738;28;20231;-67
2022/11/12 15:29:27;;;;;;;3.83;2.00;;;;;;;6.48;83.09;99188.75;6227724;28;20235;-67
2022/11/12 15:33:06;;;;;;;3.10;2.13;;;;;;;6.36;83.49;99191.84;6226976;28;20232;-66
2022/11/12 15:36:26;;;;;;;3.87;3.07;;;;;;;6.25;83.73;99197.50;6225141;28;20220;-67
2022/11/12 15:40:00;;;;;;;3.37;2.77;;;;;;;6.09;84.71;99193.75;6229553;28;20231;-66
2022/11/12 15:43:24;;;;;;;4.20;3.00;;;;;;;5.99;84.98;99195.00;6228054;28;20242;-67
2022/11/12 15:46:46;;;;;;;7.97;3.53;;;;;;;5.90;85.28;99208.47;6228887;28;20318;-67
2022/11/12 15:50:14;;;;;;;8.43;3.17;;;;;;;5.78;85.45;99203.66;6229296;28;20228;-67
2022/11/12 15:53:34;;;;;;;6.93;3.37;;;;;;;5.67;85.98;99203.19;6228246;28;20702;-67
2022/11/12 15:56:55;;;;;;;7.90;3.27;;;;;;;5.57;86.18;99208.75;6228761;28;20224;-67
2022/11/12 16:00:19;;;;;;;3.47;2.63;;;;;;;5.49;86.21;99205.53;6226725;28;20218;-67
2022/11/12 16:03:39;;;;;;;4.33;2.30;;;;;;;5.38;86.43;99204.22;6224469;28;20235;-68
2022/11/12 16:07:00;;;;;;;2.40;1.53;;;;;;;5.27;87.01;99208.97;6230696;28;20331;-68
2022/11/12 16:10:21;;;;;;;2.40;2.20;;;;;;;5.20;87.07;99201.31;6227205;28;20702;-68
2022/11/12 16:13:41;;;;;;;2.20;2.00;;;;;;;5.10;nan;99207.78;6228711;28;20699;-68
2022/11/12 16:17:02;;;;;;;3.37;1.70;;;;;;;5.05;88.63;99198.38;6228082;28;20250;-68
2022/11/12 16:20:25;;;;;;;3.93;2.17;;;;;;;4.99;89.08;99207.28;6224446;28;20466;-67
2022/11/12 16:23:46;;;;;;;3.27;2.27;;;;;;;4.85;89.29;99193.81;6222715;28;20231;-67
2022/11/12 16:27:16;;;;;;;3.83;1.90;;;;;;;4.72;89.44;99203.81;6226287;28;20227;-67
2022/11/12 16:30:37;;;;;;;4.10;1.67;;;;;;;4.61;89.77;99208.53;6222494;28;20242;-67
2022/11/12 16:33:59;;;;;;;3.30;1.80;;;;;;;4.53;89.48;99213.16;6225084;28;20237;-67
2022/11/12 16:37:20;;;;;;;3.17;2.13;;;;;;;4.52;90.63;99208.81;6225787;28;20237;-68
2022/11/12 16:40:41;;;;;;;6.47;1.77;;;;;;;4.48;90.45;99206.38;6226169;28;20278;-67
2022/11/12 16:44:02;;;;;;;2.80;1.33;;;;;;;4.42;90.56;99210.88;6228469;28;20240;-67